createdAt,value
2017-02-11T11:45:18.368Z,97.02
2017-02-11T11:46:17.941Z,96.83
2017-02-11T11:47:18.300Z,97.02
2017-02-11T11:48:18.260Z,97.3
2017-02-11T11:49:18.228Z,97.2
2017-02-11T11:50:18.197Z,96.92
2017-02-11T11:51:18.162Z,97.02
2017-02-11T11:52:18.152Z,96.54
2017-02-11T11:53:18.105Z,96.45
2017-02-11T11:54:17.743Z,96.64
2017-02-11T11:55:18.058Z,96.26
2017-02-11T11:56:18.015Z,96.07
2017-02-11T11:57:17.992Z,96.07
2017-02-11T11:58:17.970Z,95.97
2017-02-11T11:59:17.937Z,95.97
2017-02-11T12:00:17.909Z,96.26
2017-02-11T12:01:17.882Z,96.35
2017-02-11T12:02:17.854Z,96.54
2017-02-11T12:03:17.825Z,96.73
2017-02-11T12:04:17.441Z,96.54
2017-02-11T12:05:17.777Z,96.07
2017-02-11T12:06:17.802Z,95.69
2017-02-11T12:07:17.339Z,96.16
2017-02-11T12:08:17.310Z,96.16
2017-02-11T12:09:17.671Z,95.97
2017-02-11T12:10:17.643Z,95.88
2017-02-11T12:11:17.623Z,95.78
2017-02-11T12:12:17.602Z,96.16
2017-02-11T12:13:17.577Z,95.69
2017-02-11T12:14:17.543Z,96.07
2017-02-11T12:15:17.519Z,96.16
2017-02-11T12:16:17.494Z,95.78
2017-02-11T12:17:17.080Z,95.69
2017-02-11T12:18:17.443Z,95.45
2017-02-11T12:19:17.415Z,95.59
2017-02-11T12:20:17.394Z,95.26
2017-02-11T12:21:16.982Z,94.79
2017-02-11T12:22:17.342Z,94.98
2017-02-11T12:23:17.312Z,94.84
2017-02-11T12:24:17.293Z,94.89
2017-02-11T12:25:16.925Z,94.6
2017-02-11T12:26:17.247Z,94.7
2017-02-11T12:27:16.827Z,94.89
2017-02-11T12:28:17.192Z,94.89
2017-02-11T12:29:17.167Z,94.6
2017-02-11T12:30:17.146Z,94.42
2017-02-11T12:31:17.168Z,94.89
2017-02-11T12:32:17.386Z,94.51
2017-02-11T12:33:17.350Z,94.98
2017-02-11T12:34:17.035Z,94.42
2017-02-11T12:35:17.017Z,94.32
2017-02-11T12:36:16.991Z,94.13
2017-02-11T12:37:16.993Z,93.84
2017-02-11T12:38:16.940Z,94.23
2017-02-11T12:39:16.925Z,94.23
2017-02-11T12:40:16.895Z,94.23
2017-02-11T12:41:16.870Z,94.23
2017-02-11T12:42:16.844Z,94.23
2017-02-11T12:43:16.820Z,93.94
2017-02-11T12:44:16.793Z,94.32
2017-02-11T12:45:16.768Z,93.65
2017-02-11T12:46:16.362Z,93.94
2017-02-11T12:47:16.724Z,93.94
2017-02-11T12:48:16.725Z,93.94
2017-02-11T12:49:16.667Z,93.84
2017-02-11T12:50:16.645Z,93.75
2017-02-11T12:51:16.624Z,93.46
2017-02-11T12:52:16.590Z,93.27
2017-02-11T12:53:16.622Z,94.04
2017-02-11T12:54:16.543Z,94.23
2017-02-11T12:55:16.631Z,94.27
2017-02-11T12:56:16.492Z,94.23
2017-02-11T12:57:16.470Z,93.27
2017-02-11T12:58:16.447Z,92.85
2017-02-11T12:59:16.474Z,92.99
2017-02-11T13:00:16.016Z,93.56
2017-02-11T13:01:16.377Z,92.94
2017-02-11T13:02:15.964Z,94.13
2017-02-11T13:03:16.324Z,93.46
2017-02-11T13:04:16.299Z,93.46
2017-02-11T13:05:16.278Z,94.23
2017-02-11T13:06:16.251Z,94.7
2017-02-11T13:07:16.228Z,94.51
2017-02-11T13:08:16.210Z,94.51
2017-02-11T13:09:16.172Z,94.89
2017-02-11T13:10:16.151Z,94.42
2017-02-11T13:11:16.127Z,94.79
2017-02-11T13:12:15.719Z,94.18
2017-02-11T13:13:16.080Z,94.08
2017-02-11T13:14:16.050Z,93.94
2017-02-11T13:15:16.034Z,93.94
2017-02-11T13:16:16.017Z,94.27
2017-02-11T13:17:15.973Z,93.99
2017-02-11T13:18:15.955Z,93.99
2017-02-11T13:19:15.984Z,94.18
2017-02-11T13:20:15.517Z,93.89
2017-02-11T13:21:15.884Z,93.8
2017-02-11T13:22:15.866Z,93.7
2017-02-11T13:23:15.448Z,93.51
2017-02-11T13:24:15.809Z,93.32
2017-02-11T13:25:15.780Z,92.76
2017-02-11T13:26:15.761Z,91.62
2017-02-11T13:27:15.726Z,91.62
2017-02-11T13:28:15.707Z,92
2017-02-11T13:29:15.684Z,92.57
2017-02-11T13:30:15.273Z,92.76
2017-02-11T13:31:15.640Z,93.51
2017-02-11T13:32:15.611Z,92.85
2017-02-11T13:33:15.580Z,92.94
2017-02-11T13:34:15.560Z,93.42
2017-02-11T13:35:15.533Z,94.23
2017-02-11T13:36:15.511Z,94.7
2017-02-11T13:37:15.486Z,94.89
2017-02-11T13:38:15.469Z,94.89
2017-02-11T13:39:15.444Z,95.26
2017-02-11T13:40:15.414Z,95.07
2017-02-11T13:41:15.003Z,95.64
2017-02-11T13:42:15.358Z,95.07
2017-02-11T13:43:15.331Z,95.36
2017-02-11T13:44:14.921Z,95.36
2017-02-11T13:45:14.902Z,94.89
2017-02-11T13:46:15.265Z,95.07
2017-02-11T13:47:15.234Z,95.26
2017-02-11T13:48:15.269Z,95.36
2017-02-11T13:49:14.801Z,95.64
2017-02-11T13:50:14.874Z,95.93
2017-02-11T13:51:15.135Z,95.74
2017-02-11T13:52:15.211Z,96.59
2017-02-11T13:53:15.094Z,95.93
2017-02-11T13:54:15.062Z,95.74
2017-02-11T13:55:15.037Z,96.21
2017-02-11T13:56:15.007Z,96.69
2017-02-11T13:57:14.981Z,96.21
2017-02-11T13:58:14.971Z,95.64
2017-02-11T13:59:14.548Z,97.06
2017-02-11T14:00:14.907Z,96.78
2017-02-11T14:01:14.882Z,96.21
2017-02-11T14:02:14.857Z,97.35
2017-02-11T14:03:15.133Z,97.06
2017-02-11T14:04:14.805Z,97.54
2017-02-11T14:05:14.397Z,97.82
2017-02-11T14:06:14.749Z,97.63
2017-02-11T14:07:14.727Z,97.82
2017-02-11T14:08:14.705Z,97.63
2017-02-11T14:09:14.786Z,97.35
2017-02-11T14:10:14.267Z,97.06
2017-02-11T14:11:14.632Z,98.01
2017-02-11T14:12:14.597Z,97.68
2017-02-11T14:13:14.578Z,97.92
2017-02-11T14:14:14.164Z,97.44
2017-02-11T14:15:14.536Z,97.82
2017-02-11T14:16:14.172Z,97.02
2017-02-11T14:17:14.481Z,95.03
2017-02-11T14:18:14.451Z,96.07
2017-02-11T14:19:14.036Z,95.98
2017-02-11T14:20:14.399Z,95.31
2017-02-11T14:21:14.368Z,95.03
2017-02-11T14:22:14.346Z,95.31
2017-02-11T14:23:14.326Z,96.07
2017-02-11T14:24:14.299Z,96.45
2017-02-11T14:25:14.271Z,96.55
2017-02-11T14:26:13.862Z,97.4
2017-02-11T14:27:13.835Z,96.97
2017-02-11T14:28:14.195Z,97.21
2017-02-11T14:29:14.173Z,97.59
2017-02-11T14:30:14.191Z,96.17
2017-02-11T14:31:14.117Z,96.36
2017-02-11T14:32:14.099Z,95.83
2017-02-11T14:33:14.065Z,96.07
2017-02-11T14:34:14.046Z,96.02
2017-02-11T14:35:14.072Z,96.73
2017-02-11T14:36:13.605Z,96.26
2017-02-11T14:37:13.968Z,96.07
2017-02-11T14:38:13.557Z,96.36
2017-02-11T14:39:13.913Z,95.12
2017-02-11T14:40:13.892Z,95.31
2017-02-11T14:41:13.868Z,96.07
2017-02-11T14:42:13.837Z,96.55
2017-02-11T14:43:13.814Z,96.17
2017-02-11T14:44:13.793Z,96.07
2017-02-11T14:45:13.764Z,96.55
2017-02-11T14:46:13.384Z,95.88
2017-02-11T14:47:13.713Z,95.41
2017-02-11T14:48:13.688Z,95.88
2017-02-11T14:49:13.671Z,95.79
2017-02-11T14:50:13.635Z,96.64
2017-02-11T14:51:13.230Z,96.26
2017-02-11T14:52:13.594Z,95.83
2017-02-11T14:53:13.561Z,96.26
2017-02-11T14:54:13.540Z,95.88
2017-02-11T14:55:13.124Z,96.5
2017-02-11T14:56:13.488Z,96.21
2017-02-11T14:57:13.456Z,96.31
2017-02-11T14:58:13.690Z,97.06
2017-02-11T14:59:13.413Z,97.25
2017-02-11T15:00:13.385Z,97.54
2017-02-11T15:01:12.969Z,97.63
2017-02-11T15:02:12.992Z,98.11
2017-02-11T15:03:12.925Z,97.82
2017-02-11T15:04:13.283Z,97.25
2017-02-11T15:05:13.267Z,97.82
2017-02-11T15:06:12.849Z,98.3
2017-02-11T15:07:13.204Z,98.86
2017-02-11T15:08:12.797Z,98.96
2017-02-11T15:09:13.157Z,98.77
2017-02-11T15:10:12.740Z,98.77
2017-02-11T15:11:13.101Z,98.77
2017-02-11T15:12:12.743Z,99.24
2017-02-11T15:13:13.047Z,99.43
2017-02-11T15:14:13.074Z,99.15
2017-02-11T15:15:13.001Z,99.15
2017-02-11T15:16:12.979Z,99.52
2017-02-11T15:17:12.945Z,99.43
2017-02-11T15:18:12.926Z,99.43
2017-02-11T15:19:12.908Z,99.62
2017-02-11T15:20:12.869Z,99.62
2017-02-11T15:21:12.848Z,99.81
2017-02-11T15:22:12.827Z,99.43
2017-02-11T15:23:12.804Z,99.62
2017-02-11T15:24:12.766Z,99.9
2017-02-11T15:25:12.745Z,99.9
2017-02-11T15:26:12.734Z,99.9
2017-02-11T15:27:12.691Z,99.99
2017-02-11T15:28:12.283Z,99.15
2017-02-11T15:29:12.642Z,99.15
2017-02-11T15:30:12.622Z,99.43
2017-02-11T15:31:12.219Z,99.05
2017-02-11T15:32:12.627Z,99.15
2017-02-11T15:33:12.744Z,99.24
2017-02-11T15:34:12.515Z,99.52
2017-02-11T15:35:12.511Z,99.99
2017-02-11T15:36:12.461Z,99.71
2017-02-11T15:37:12.494Z,99.62
2017-02-11T15:38:12.418Z,98.96
2017-02-11T15:39:12.382Z,99.15
2017-02-11T15:40:12.366Z,99.99
2017-02-11T15:41:12.334Z,98.68
2017-02-11T15:42:12.306Z,99.71
2017-02-11T15:43:12.293Z,98.77
2017-02-11T15:44:12.251Z,98.77
2017-02-11T15:45:12.233Z,98.86
2017-02-11T15:46:12.201Z,99.33
2017-02-11T15:47:11.847Z,99.9
2017-02-11T15:48:12.159Z,99.24
2017-02-11T15:49:11.742Z,99.15
2017-02-11T15:50:12.102Z,99.52
2017-02-11T15:51:12.087Z,99.05
2017-02-11T15:52:12.055Z,99.81
2017-02-11T15:53:12.032Z,99.9
2017-02-11T15:54:12.002Z,99.15
2017-02-11T15:55:11.978Z,99.71
2017-02-11T15:56:11.617Z,99.52
2017-02-11T15:57:11.931Z,98.86
2017-02-11T15:58:11.891Z,99.05
2017-02-11T15:59:11.867Z,98.49
2017-02-11T16:00:11.843Z,99.05
2017-02-11T16:01:11.815Z,98.77
2017-02-11T16:02:11.788Z,99.33
2017-02-11T16:03:11.771Z,98.72
2017-02-11T16:04:11.740Z,99.52
2017-02-11T16:05:11.710Z,98.91
2017-02-11T16:06:11.683Z,98.44
2017-02-11T16:07:11.662Z,98.82
2017-02-11T16:08:11.627Z,98.72
2017-02-11T16:09:11.635Z,99.38
2017-02-11T16:10:11.590Z,99.19
2017-02-11T16:11:11.557Z,99.01
2017-02-11T16:12:11.528Z,99.19
2017-02-11T16:13:11.503Z,99.38
2017-02-11T16:14:11.481Z,99.95
2017-02-11T16:15:11.455Z,99.76
2017-02-11T16:16:11.422Z,99.66
2017-02-11T16:17:11.400Z,99.48
2017-02-11T16:18:11.369Z,99.99
2017-02-11T16:19:10.983Z,99.85
2017-02-11T16:20:10.930Z,99.29
2017-02-11T16:21:10.908Z,99.85
2017-02-11T16:22:11.265Z,99.1
2017-02-11T16:23:11.236Z,99.38
2017-02-11T16:24:11.214Z,99.99
2017-02-11T16:25:10.793Z,99.76
2017-02-11T16:26:11.154Z,99.85
2017-02-11T16:27:10.751Z,99.99
2017-02-11T16:28:11.107Z,99.95
2017-02-11T16:29:11.082Z,99.99
2017-02-11T16:30:11.083Z,99.85
2017-02-11T16:31:11.091Z,99.99
2017-02-11T16:32:11.009Z,99.76
2017-02-11T16:33:10.974Z,99.99
2017-02-11T16:34:10.946Z,99.99
2017-02-11T16:35:10.927Z,99.95
2017-02-11T16:36:10.897Z,99.19
2017-02-11T16:37:10.875Z,99.1
2017-02-11T16:38:10.853Z,99.1
2017-02-11T16:39:10.818Z,99.76
2017-02-11T16:40:10.809Z,99.76
2017-02-11T16:41:10.761Z,99.1
2017-02-11T16:42:10.348Z,99.76
2017-02-11T16:43:10.710Z,99.57
2017-02-11T16:44:10.683Z,99.19
2017-02-11T16:45:10.660Z,99.57
2017-02-11T16:46:10.631Z,99.48
2017-02-11T16:47:10.603Z,99.19
2017-02-11T16:48:10.577Z,99.57
2017-02-11T16:49:10.551Z,99.57
2017-02-11T16:50:10.528Z,99.48
2017-02-11T16:51:10.495Z,99.29
2017-02-11T16:52:10.519Z,99.57
2017-02-11T16:53:10.491Z,99.48
2017-02-11T16:54:10.415Z,99.76
2017-02-11T16:55:10.387Z,99.38
2017-02-11T16:56:10.363Z,98.82
2017-02-11T16:57:10.337Z,99.48
2017-02-11T16:58:10.314Z,99.66
2017-02-11T16:59:09.900Z,99.48
2017-02-11T17:00:10.274Z,99.66
2017-02-11T17:01:09.845Z,99.76
2017-02-11T17:02:10.211Z,99.99
2017-02-11T17:03:10.178Z,99.99
2017-02-11T17:04:10.150Z,99.95
2017-02-11T17:05:10.125Z,99.99
2017-02-11T17:06:10.105Z,99.99
2017-02-11T17:07:10.071Z,99.99
2017-02-11T17:08:10.063Z,99.99
2017-02-11T17:09:10.015Z,99.85
2017-02-11T17:10:09.987Z,99.99
2017-02-11T17:11:09.964Z,99.99
2017-02-11T17:12:09.941Z,99.99
2017-02-11T17:13:09.523Z,99.99
2017-02-11T17:14:09.881Z,99.99
2017-02-11T17:15:09.863Z,99.99
2017-02-11T17:16:09.832Z,99.99
2017-02-11T17:17:09.821Z,99.99
2017-02-11T17:18:09.779Z,99.99
2017-02-11T17:19:09.755Z,99.99
2017-02-11T17:20:09.730Z,99.99
2017-02-11T17:21:09.701Z,99.99
2017-02-11T17:22:09.667Z,99.99
2017-02-11T17:23:09.646Z,99.99
2017-02-11T17:24:09.613Z,99.99
2017-02-11T17:25:09.587Z,99.99
2017-02-11T17:26:09.562Z,99.99
2017-02-11T17:27:09.537Z,99.99
2017-02-11T17:28:09.508Z,99.99
2017-02-11T17:29:09.491Z,99.99
2017-02-11T17:30:09.452Z,99.99
2017-02-11T17:31:09.425Z,99.99
2017-02-11T17:32:09.395Z,99.99
2017-02-11T17:33:09.378Z,99.99
2017-02-11T17:34:09.345Z,99.99
2017-02-11T17:35:09.331Z,99.99
2017-02-11T17:36:09.297Z,99.99
2017-02-11T17:37:08.877Z,99.99
2017-02-11T17:38:09.235Z,99.99
2017-02-11T17:39:09.214Z,99.99
2017-02-11T17:40:09.181Z,99.99
2017-02-11T17:41:09.152Z,99.99
2017-02-11T17:42:09.126Z,99.99
2017-02-11T17:43:08.715Z,99.99
2017-02-11T17:44:09.078Z,99.99
2017-02-11T17:45:09.046Z,99.99
2017-02-11T17:46:08.633Z,99.99
2017-02-11T17:47:08.993Z,99.99
2017-02-11T17:48:08.577Z,99.99
2017-02-11T17:49:08.947Z,99.99
2017-02-11T17:50:08.923Z,99.99
2017-02-11T17:51:08.888Z,99.99
2017-02-11T17:52:08.861Z,99.99
2017-02-11T17:53:08.829Z,99.99
2017-02-11T17:54:08.800Z,99.99
2017-02-11T17:55:08.771Z,99.99
2017-02-11T17:56:08.746Z,99.99
2017-02-11T17:57:08.733Z,99.99
2017-02-11T17:58:08.691Z,99.99
2017-02-11T17:59:08.663Z,99.99
2017-02-11T18:00:08.665Z,99.99
2017-02-11T18:01:08.667Z,99.99
2017-02-11T18:02:08.592Z,99.99
2017-02-11T18:03:08.558Z,99.99
2017-02-11T18:04:08.578Z,99.99
2017-02-11T18:05:08.121Z,99.99
2017-02-11T18:06:08.476Z,99.99
2017-02-11T18:07:08.450Z,99.99
2017-02-11T18:08:08.036Z,99.99
2017-02-11T18:09:08.397Z,99.99
2017-02-11T18:10:08.367Z,99.99
2017-02-11T18:11:07.961Z,99.99
2017-02-11T18:12:08.312Z,99.99
2017-02-11T18:13:08.285Z,99.99
2017-02-11T18:14:08.254Z,99.99
2017-02-11T18:15:08.242Z,99.99
2017-02-11T18:16:07.837Z,99.99
2017-02-11T18:17:07.791Z,99.99
2017-02-11T18:18:08.200Z,99.99
2017-02-11T18:19:08.124Z,99.99
2017-02-11T18:20:08.106Z,99.9
2017-02-11T18:21:08.366Z,99.99
2017-02-11T18:22:08.045Z,99.99
2017-02-11T18:23:07.631Z,99.71
2017-02-11T18:24:07.983Z,99.99
2017-02-11T18:25:07.969Z,99.99
2017-02-11T18:26:07.550Z,99.99
2017-02-11T18:27:07.906Z,99.62
2017-02-11T18:28:07.926Z,99.43
2017-02-11T18:29:07.860Z,99.52
2017-02-11T18:30:07.451Z,99.62
2017-02-11T18:31:07.405Z,99.99
2017-02-11T18:32:07.771Z,99.99
2017-02-11T18:33:07.747Z,99.99
2017-02-11T18:34:07.330Z,99.99
2017-02-11T18:35:07.693Z,99.99
2017-02-11T18:36:07.665Z,99.99
2017-02-11T18:37:07.640Z,99.99
2017-02-11T18:38:07.664Z,99.9
2017-02-11T18:39:07.199Z,98.77
2017-02-11T18:40:07.553Z,99.43
2017-02-11T18:41:07.540Z,99.62
2017-02-11T18:42:07.496Z,99.33
2017-02-11T18:43:07.477Z,98.67
2017-02-11T18:44:07.365Z,99.9
2017-02-11T18:45:07.044Z,99.99
2017-02-11T18:46:07.403Z,99.9
2017-02-11T18:47:07.363Z,99.62
2017-02-11T18:48:07.339Z,99.8
2017-02-11T18:49:06.921Z,99.8
2017-02-11T18:50:07.584Z,99.71
2017-02-11T18:51:06.884Z,98.96
2017-02-11T18:52:06.840Z,99.71
2017-02-11T18:53:07.206Z,99.52
2017-02-11T18:54:07.087Z,99.99
2017-02-11T18:55:07.151Z,99.15
2017-02-11T18:56:07.127Z,98.29
2017-02-11T18:57:06.712Z,99.24
2017-02-11T18:58:07.071Z,98.77
2017-02-11T18:59:07.058Z,98.67
2017-02-11T19:00:07.020Z,99.43
2017-02-11T19:01:06.989Z,99.43
2017-02-11T19:02:06.956Z,99.43
2017-02-11T19:03:06.940Z,99.71
2017-02-11T19:04:06.899Z,98.96
2017-02-11T19:05:06.876Z,98.96
2017-02-11T19:06:06.463Z,99.33
2017-02-11T19:07:06.822Z,98.77
2017-02-11T19:08:06.792Z,99.05
2017-02-11T19:09:06.766Z,99.43
2017-02-11T19:10:06.738Z,99.8
2017-02-11T19:11:06.709Z,99.43
2017-02-11T19:12:06.687Z,99.52
2017-02-11T19:13:06.655Z,99.9
2017-02-11T19:14:06.298Z,99.24
2017-02-11T19:15:06.603Z,99.43
2017-02-11T19:16:06.578Z,99.05
2017-02-11T19:17:06.554Z,99.05
2017-02-11T19:18:06.519Z,99.52
2017-02-11T19:19:06.500Z,99.43
2017-02-11T19:20:06.086Z,99.24
2017-02-11T19:21:06.057Z,98.96
2017-02-11T19:22:06.030Z,99.15
2017-02-11T19:23:06.389Z,99.15
2017-02-11T19:24:06.408Z,98.86
2017-02-11T19:25:05.949Z,98.77
2017-02-11T19:26:06.308Z,99.15
2017-02-11T19:27:06.293Z,98.39
2017-02-11T19:28:06.250Z,98.29
2017-02-11T19:29:06.228Z,97.63
2017-02-11T19:30:05.867Z,98.29
2017-02-11T19:31:05.786Z,97.34
2017-02-11T19:32:06.140Z,97.53
2017-02-11T19:33:06.116Z,97.72
2017-02-11T19:34:06.087Z,98.29
2017-02-11T19:35:06.060Z,97.91
2017-02-11T19:36:05.649Z,98.2
2017-02-11T19:37:05.622Z,98.1
2017-02-11T19:38:05.983Z,98.29
2017-02-11T19:39:05.962Z,98.29
2017-02-11T19:40:05.974Z,98.2
2017-02-11T19:41:05.903Z,97.82
2017-02-11T19:42:05.874Z,97.91
2017-02-11T19:43:05.847Z,98.29
2017-02-11T19:44:05.432Z,98.29
2017-02-11T19:45:05.785Z,98.29
2017-02-11T19:46:05.815Z,97.82
2017-02-11T19:47:05.407Z,97.44
2017-02-11T19:48:05.333Z,97.16
2017-02-11T19:49:05.684Z,97.34
2017-02-11T19:50:05.669Z,98.72
2017-02-11T19:51:05.627Z,98.29
2017-02-11T19:52:05.218Z,98.2
2017-02-11T19:53:05.582Z,98.25
2017-02-11T19:54:05.160Z,98.63
2017-02-11T19:55:05.138Z,98.01
2017-02-11T19:56:05.503Z,97.53
2017-02-11T19:57:05.466Z,97.72
2017-02-11T19:58:05.435Z,97.34
2017-02-11T19:59:05.026Z,97.25
2017-02-11T20:00:05.388Z,97.53
2017-02-11T20:01:05.357Z,97.53
2017-02-11T20:02:04.950Z,97.63
2017-02-11T20:03:05.302Z,97.91
2017-02-11T20:04:05.275Z,97.53
2017-02-11T20:05:05.247Z,97.49
2017-02-11T20:06:04.838Z,97.49
2017-02-11T20:07:05.202Z,97.16
2017-02-11T20:08:05.171Z,97.34
2017-02-11T20:09:05.138Z,97.44
2017-02-11T20:10:05.110Z,97.25
2017-02-11T20:11:05.082Z,97.72
2017-02-11T20:12:04.672Z,97.53
2017-02-11T20:13:05.029Z,97.53
2017-02-11T20:14:05.003Z,97.44
2017-02-11T20:15:04.991Z,97.44
2017-02-11T20:16:04.951Z,97.44
2017-02-11T20:17:04.918Z,96.78
2017-02-11T20:18:04.900Z,96.78
2017-02-11T20:19:04.482Z,96.97
2017-02-11T20:20:04.841Z,96.88
2017-02-11T20:21:04.825Z,97.44
2017-02-11T20:22:04.789Z,97.72
2017-02-11T20:23:04.765Z,97.25
2017-02-11T20:24:04.727Z,97.16
2017-02-11T20:25:04.704Z,97.82
2017-02-11T20:26:04.685Z,97.72
2017-02-11T20:27:04.266Z,97.16
2017-02-11T20:28:04.247Z,97.44
2017-02-11T20:29:04.621Z,97.25
2017-02-11T20:30:04.573Z,97.72
2017-02-11T20:31:04.545Z,97.63
2017-02-11T20:32:04.514Z,97.63
2017-02-11T20:33:04.482Z,97.82
2017-02-11T20:34:04.462Z,97.53
2017-02-11T20:35:04.493Z,97.53
2017-02-11T20:36:04.461Z,97.34
2017-02-11T20:37:04.383Z,97.63
2017-02-11T20:38:04.354Z,97.72
2017-02-11T20:39:04.329Z,97.25
2017-02-11T20:40:04.304Z,97.53
2017-02-11T20:41:03.884Z,97.72
2017-02-11T20:42:04.243Z,97.72
2017-02-11T20:43:04.219Z,97.53
2017-02-11T20:44:04.217Z,97.82
2017-02-11T20:45:04.172Z,97.53
2017-02-11T20:46:04.198Z,98.2
2017-02-11T20:47:04.106Z,98.2
2017-02-11T20:48:04.083Z,98.29
2017-02-11T20:49:03.664Z,98.58
2017-02-11T20:50:03.635Z,99.15
2017-02-11T20:51:04.044Z,98.86
2017-02-11T20:52:03.983Z,98.58
2017-02-11T20:53:03.549Z,99.43
2017-02-11T20:54:03.939Z,99.33
2017-02-11T20:55:03.499Z,99.62
2017-02-11T20:56:03.475Z,99.43
2017-02-11T20:57:03.441Z,99.99
2017-02-11T20:58:03.807Z,99.9
2017-02-11T20:59:03.775Z,99.99
2017-02-11T21:00:03.747Z,99.99
2017-02-11T21:01:03.733Z,99.99
2017-02-11T21:02:03.695Z,99.99
2017-02-11T21:03:03.664Z,99.99
2017-02-11T21:04:03.648Z,99.99
2017-02-11T21:05:03.619Z,99.99
2017-02-11T21:06:03.192Z,99.99
2017-02-11T21:07:03.561Z,99.99
2017-02-11T21:08:03.529Z,99.99
2017-02-11T21:09:03.504Z,99.99
2017-02-11T21:10:03.470Z,99.99
2017-02-11T21:11:03.446Z,99.99
2017-02-11T21:12:03.418Z,99.99
2017-02-11T21:13:03.400Z,99.99
2017-02-11T21:14:03.360Z,99.99
2017-02-11T21:15:03.335Z,99.99
2017-02-11T21:16:03.308Z,99.99
2017-02-11T21:17:03.294Z,99.99
2017-02-11T21:18:03.302Z,99.99
2017-02-11T21:19:03.531Z,99.99
2017-02-11T21:20:02.815Z,99.99
2017-02-11T21:21:03.177Z,99.99
2017-02-11T21:22:02.757Z,99.99
2017-02-11T21:23:03.123Z,99.99
2017-02-11T21:24:03.097Z,99.99
2017-02-11T21:25:03.063Z,99.99
2017-02-11T21:26:03.030Z,99.99
2017-02-11T21:27:03.012Z,99.99
2017-02-11T21:28:02.601Z,99.99
2017-02-11T21:29:02.961Z,99.99
2017-02-11T21:30:02.929Z,99.99
2017-02-11T21:31:02.906Z,99.99
2017-02-11T21:32:02.920Z,99.99
2017-02-11T21:33:02.893Z,99.99
2017-02-11T21:34:02.810Z,99.99
2017-02-11T21:35:02.402Z,99.99
2017-02-11T21:36:02.807Z,99.99
2017-02-11T21:37:02.731Z,99.99
2017-02-11T21:38:02.701Z,99.99
2017-02-11T21:39:02.673Z,99.99
2017-02-11T21:40:02.645Z,99.99
2017-02-11T21:41:02.671Z,99.99
2017-02-11T21:42:02.590Z,99.99
2017-02-11T21:43:02.625Z,99.99
2017-02-11T21:44:02.535Z,99.99
2017-02-11T21:45:02.516Z,99.99
2017-02-11T21:46:02.529Z,99.99
2017-02-11T21:47:02.466Z,99.99
2017-02-11T21:48:02.037Z,99.99
2017-02-11T21:49:02.014Z,99.99
2017-02-11T21:50:02.378Z,99.99
2017-02-11T21:51:01.968Z,99.99
2017-02-11T21:52:02.323Z,99.99
2017-02-11T21:53:02.303Z,99.99
2017-02-11T21:54:02.259Z,99.99
2017-02-11T21:55:01.855Z,99.99
2017-02-11T21:56:01.826Z,99.99
2017-02-11T21:57:02.179Z,99.99
2017-02-11T21:58:01.765Z,99.99
2017-02-11T21:59:01.738Z,99.99
2017-02-11T22:00:02.091Z,99.99
2017-02-11T22:01:01.683Z,99.99
2017-02-11T22:02:02.036Z,99.99
2017-02-11T22:03:01.626Z,99.99
2017-02-11T22:04:01.978Z,99.99
2017-02-11T22:05:01.962Z,99.99
2017-02-11T22:06:01.941Z,99.99
2017-02-11T22:07:01.520Z,99.99
2017-02-11T22:08:01.488Z,99.99
2017-02-11T22:09:01.510Z,99.99
2017-02-11T22:10:01.821Z,99.99
2017-02-11T22:11:01.787Z,99.99
2017-02-11T22:12:01.754Z,99.99
2017-02-11T22:13:01.730Z,99.99
2017-02-11T22:14:01.710Z,99.99
2017-02-11T22:15:01.676Z,99.99
2017-02-11T22:16:01.655Z,99.99
2017-02-11T22:17:01.643Z,99.99
2017-02-11T22:18:01.591Z,99.99
2017-02-11T22:19:01.574Z,99.99
2017-02-11T22:20:01.549Z,99.99
2017-02-11T22:21:01.517Z,99.99
2017-02-11T22:22:01.097Z,99.99
2017-02-11T22:23:01.457Z,99.99
2017-02-11T22:24:01.440Z,99.99
2017-02-11T22:25:01.402Z,99.99
2017-02-11T22:26:01.368Z,99.99
2017-02-11T22:27:01.344Z,99.99
2017-02-11T22:28:01.313Z,99.99
2017-02-11T22:29:00.910Z,99.99
2017-02-11T22:30:01.260Z,99.99
2017-02-11T22:31:01.236Z,99.99
2017-02-11T22:32:01.208Z,99.99
2017-02-11T22:33:02.278Z,99.99
2017-02-11T22:34:01.161Z,99.99
2017-02-11T22:35:00.736Z,99.99
2017-02-11T22:36:01.096Z,99.99
2017-02-11T22:37:01.066Z,99.99
2017-02-11T22:38:01.039Z,99.99
2017-02-11T22:39:01.018Z,99.99
2017-02-11T22:40:01.036Z,99.99
2017-02-11T22:41:00.955Z,99.99
2017-02-11T22:42:00.929Z,99.99
2017-02-11T22:43:00.908Z,99.99
2017-02-11T22:44:00.887Z,99.99
2017-02-11T22:45:00.850Z,99.99
2017-02-11T22:46:00.818Z,99.99
2017-02-11T22:47:00.405Z,99.8
2017-02-11T22:48:00.773Z,99.99
2017-02-11T22:49:00.357Z,99.99
2017-02-11T22:50:00.327Z,99.99
2017-02-11T22:51:01.133Z,99.99
2017-02-11T22:52:00.654Z,99.99
2017-02-11T22:53:00.657Z,99.99
2017-02-11T22:54:00.600Z,99.99
2017-02-11T22:55:00.190Z,99.99
2017-02-11T22:56:00.161Z,99.99
2017-02-11T22:57:00.531Z,99.99
2017-02-11T22:58:00.107Z,99.9
2017-02-11T22:59:00.470Z,99.52
2017-02-11T23:00:00.054Z,99.05
2017-02-11T23:01:00.409Z,99.33
2017-02-11T23:02:00.383Z,99.33
2017-02-11T23:03:00.662Z,99.33
2017-02-11T23:04:00.330Z,99.52
2017-02-11T23:05:00.306Z,99.62
2017-02-11T23:06:00.267Z,99.62
2017-02-11T23:07:00.294Z,99.8
2017-02-11T23:08:00.216Z,99.99
2017-02-11T23:09:00.191Z,99.99
2017-02-11T23:10:00.163Z,99.99
2017-02-11T23:11:00.135Z,99.99
2017-02-11T23:12:00.104Z,99.99
2017-02-11T23:13:00.078Z,99.99
2017-02-11T23:14:00.053Z,99.99
2017-02-11T23:15:00.033Z,99.99
2017-02-11T23:15:59.996Z,99.99
2017-02-11T23:16:59.970Z,99.99
2017-02-11T23:17:59.559Z,99.99
2017-02-11T23:18:59.909Z,99.99
2017-02-11T23:19:59.504Z,99.99
2017-02-11T23:20:59.855Z,99.99
2017-02-11T23:21:59.832Z,99.99
2017-02-11T23:22:59.801Z,99.99
2017-02-11T23:23:59.384Z,99.99
2017-02-11T23:24:59.746Z,99.99
2017-02-11T23:25:59.720Z,99.99
2017-02-11T23:26:59.689Z,99.99
2017-02-11T23:27:59.657Z,99.99
2017-02-11T23:28:59.637Z,99.99
2017-02-11T23:29:59.616Z,99.99
2017-02-11T23:30:59.571Z,99.99
2017-02-11T23:31:59.594Z,99.99
2017-02-11T23:32:59.519Z,99.99
2017-02-11T23:33:59.494Z,99.99
2017-02-11T23:34:59.472Z,99.99
2017-02-11T23:35:59.057Z,99.99
2017-02-11T23:36:59.419Z,99.99
2017-02-11T23:37:59.394Z,99.99
2017-02-11T23:38:59.355Z,99.99
2017-02-11T23:39:59.385Z,99.99
2017-02-11T23:40:59.302Z,99.99
2017-02-11T23:41:59.276Z,99.99
2017-02-11T23:42:59.250Z,99.99
2017-02-11T23:43:59.219Z,99.99
2017-02-11T23:44:59.197Z,99.99
2017-02-11T23:45:59.166Z,99.99
2017-02-11T23:46:59.138Z,99.99
2017-02-11T23:47:58.729Z,99.99
2017-02-11T23:48:58.695Z,99.99
2017-02-11T23:49:59.054Z,99.99
2017-02-11T23:50:59.025Z,99.99
2017-02-11T23:51:58.995Z,99.99
2017-02-11T23:52:58.583Z,99.99
2017-02-11T23:53:58.561Z,99.99
2017-02-11T23:54:58.926Z,99.99
2017-02-11T23:55:58.894Z,99.99
2017-02-11T23:56:58.859Z,99.99
2017-02-11T23:57:58.834Z,99.99
2017-02-11T23:58:58.801Z,99.99
2017-02-11T23:59:58.773Z,99.99
